createdAt,value
2023-05-22T00:01:26.139Z,11.95
2023-05-22T00:03:58.666Z,11.93
2023-05-22T00:06:33.402Z,12.00
2023-05-22T00:09:05.910Z,12.02
2023-05-22T00:11:38.838Z,12.08
2023-05-22T00:14:12.760Z,12.15
2023-05-22T00:16:47.577Z,12.04
2023-05-22T00:19:22.328Z,12.03
2023-05-22T00:21:54.749Z,12.03
2023-05-22T00:24:27.098Z,12.02
2023-05-22T00:26:59.415Z,12.04
2023-05-22T00:29:32.666Z,12.01
2023-05-22T00:32:06.682Z,11.99
2023-05-22T00:34:39.235Z,11.93
2023-05-22T00:37:11.672Z,11.93
2023-05-22T00:39:44.168Z,11.99
2023-05-22T00:42:16.752Z,11.92
2023-05-22T00:44:49.186Z,11.87
2023-05-22T00:47:22.998Z,11.77
2023-05-22T00:49:55.749Z,11.66
2023-05-22T00:52:28.064Z,11.59
2023-05-22T00:55:00.987Z,11.58
2023-05-22T00:57:33.520Z,11.57
2023-05-22T01:00:09.956Z,11.49
2023-05-22T01:02:43.418Z,11.44
2023-05-22T01:05:17.376Z,11.38
2023-05-22T01:07:49.865Z,11.42
2023-05-22T01:10:22.398Z,11.35
2023-05-22T01:13:03.948Z,11.27
2023-05-22T01:15:43.893Z,11.27
2023-05-22T01:18:29.545Z,11.30
2023-05-22T01:21:09.558Z,11.36
2023-05-22T01:24:15.420Z,11.42
2023-05-22T01:27:10.417Z,11.42
2023-05-22T01:29:48.010Z,11.34
2023-05-22T01:32:25.144Z,11.43
2023-05-22T01:35:03.075Z,11.39
2023-05-22T01:37:36.363Z,11.32
2023-05-22T01:40:11.553Z,11.34
2023-05-22T01:42:45.172Z,11.30
2023-05-22T01:45:17.566Z,11.25
2023-05-22T01:47:51.492Z,11.32
2023-05-22T01:50:24.216Z,11.32
2023-05-22T01:53:06.574Z,11.30
2023-05-22T01:55:44.894Z,11.23
2023-05-22T01:58:25.300Z,11.22
2023-05-22T02:01:01.040Z,11.16
2023-05-22T02:03:56.664Z,11.14
2023-05-22T02:06:31.909Z,11.16
2023-05-22T02:09:06.771Z,11.12
2023-05-22T02:11:41.234Z,11.09
2023-05-22T02:14:13.690Z,11.07
2023-05-22T02:16:46.988Z,11.10
2023-05-22T02:19:20.198Z,11.07
2023-05-22T02:21:54.741Z,11.08
2023-05-22T02:24:27.420Z,11.02
2023-05-22T02:27:00.916Z,11.04
2023-05-22T02:29:33.388Z,11.10
2023-05-22T02:32:06.397Z,10.99
2023-05-22T02:34:39.604Z,11.11
2023-05-22T02:37:12.569Z,11.10
2023-05-22T02:39:48.069Z,11.08
2023-05-22T02:42:20.495Z,11.10
2023-05-22T02:44:53.021Z,11.17
2023-05-22T02:47:25.478Z,11.19
2023-05-22T02:49:58.619Z,11.24
2023-05-22T02:52:30.983Z,11.27
2023-05-22T02:55:03.650Z,11.26
2023-05-22T02:57:36.321Z,11.28
2023-05-22T03:00:10.843Z,11.30
2023-05-22T03:02:43.440Z,11.26
2023-05-22T03:05:17.106Z,11.15
2023-05-22T03:07:49.497Z,11.21
2023-05-22T03:10:23.041Z,11.25
2023-05-22T03:12:55.423Z,11.33
2023-05-22T03:15:27.913Z,11.39
2023-05-22T03:18:04.863Z,11.40
2023-05-22T03:20:38.372Z,11.45
2023-05-22T03:23:11.576Z,11.47
2023-05-22T03:25:43.953Z,11.59
2023-05-22T03:28:16.675Z,11.59
2023-05-22T03:30:49.240Z,11.61
2023-05-22T03:33:30.384Z,11.58
2023-05-22T03:36:03.986Z,11.67
2023-05-22T03:38:36.325Z,11.74
2023-05-22T03:41:08.650Z,11.72
2023-05-22T03:43:48.875Z,11.63
2023-05-22T03:46:21.434Z,11.67
2023-05-22T03:48:54.077Z,11.76
2023-05-22T03:51:27.261Z,11.78
2023-05-22T03:53:59.605Z,11.88
2023-05-22T03:56:32.025Z,11.99
2023-05-22T03:59:04.423Z,12.05
2023-05-22T04:01:38.636Z,12.06
2023-05-22T04:04:11.474Z,12.13
2023-05-22T04:06:44.558Z,12.12
2023-05-22T04:09:19.809Z,12.17
2023-05-22T04:11:52.605Z,12.22
2023-05-22T04:14:25.482Z,12.34
2023-05-22T04:16:57.917Z,12.12
2023-05-22T04:19:30.442Z,12.28
2023-05-22T04:22:03.922Z,12.26
2023-05-22T04:24:38.993Z,12.24
2023-05-22T04:27:12.471Z,12.17
2023-05-22T04:29:46.280Z,12.28
2023-05-22T04:32:21.114Z,12.43
2023-05-22T04:34:53.447Z,12.45
2023-05-22T04:37:28.068Z,12.60
2023-05-22T04:40:06.158Z,12.73
2023-05-22T04:42:38.712Z,12.67
2023-05-22T04:45:13.111Z,12.72
2023-05-22T04:47:45.472Z,12.84
2023-05-22T04:50:18.134Z,12.71
2023-05-22T04:52:51.112Z,12.74
2023-05-22T04:55:23.518Z,12.87
2023-05-22T04:57:56.049Z,12.98
2023-05-22T05:00:29.415Z,13.08
2023-05-22T05:03:03.675Z,13.12
2023-05-22T05:05:36.203Z,13.15
2023-05-22T05:08:09.362Z,13.26
2023-05-22T05:10:41.853Z,13.35
2023-05-22T05:13:14.281Z,13.36
2023-05-22T05:15:46.716Z,13.43
2023-05-22T05:18:19.493Z,13.56
2023-05-22T05:20:51.872Z,13.53
2023-05-22T05:23:24.885Z,13.60
2023-05-22T05:25:57.269Z,13.72
2023-05-22T05:28:29.646Z,13.85
2023-05-22T05:31:02.353Z,13.89
2023-05-22T05:33:57.364Z,14.13
2023-05-22T05:36:37.313Z,14.19
2023-05-22T05:39:10.521Z,14.27
2023-05-22T05:41:43.749Z,14.37
2023-05-22T05:44:16.545Z,14.60
2023-05-22T05:46:49.259Z,14.77
2023-05-22T05:49:23.758Z,14.98
2023-05-22T05:51:56.140Z,15.17
2023-05-22T05:54:30.093Z,15.22
2023-05-22T05:57:07.121Z,15.27
2023-05-22T05:59:40.462Z,15.38
2023-05-22T06:02:38.458Z,15.35
2023-05-22T06:05:12.855Z,15.30
2023-05-22T06:07:47.585Z,15.41
2023-05-22T06:10:21.819Z,15.47
2023-05-22T06:13:08.000Z,15.60
2023-05-22T06:15:40.567Z,15.66
2023-05-22T06:18:13.125Z,15.55
2023-05-22T06:20:45.484Z,15.67
2023-05-22T06:23:17.810Z,15.69
2023-05-22T06:25:50.972Z,15.76
2023-05-22T06:28:23.410Z,15.83
2023-05-22T06:30:56.502Z,15.73
2023-05-22T06:33:29.364Z,15.60
2023-05-22T06:36:03.045Z,15.70
2023-05-22T06:38:37.238Z,15.70
2023-05-22T06:41:11.521Z,15.83
2023-05-22T06:43:44.494Z,15.82
2023-05-22T06:46:18.060Z,15.73
2023-05-22T06:48:58.227Z,15.66
2023-05-22T06:51:33.507Z,15.64
2023-05-22T06:54:13.120Z,15.61
2023-05-22T06:56:49.257Z,15.70
2023-05-22T06:59:23.297Z,15.67
2023-05-22T07:01:58.497Z,15.74
2023-05-22T07:04:39.864Z,15.81
2023-05-22T07:07:15.250Z,15.93
2023-05-22T07:09:47.931Z,16.06
2023-05-22T07:12:25.266Z,16.14
2023-05-22T07:14:59.475Z,16.30
2023-05-22T07:17:32.268Z,16.48
2023-05-22T07:20:06.253Z,16.58
2023-05-22T07:22:41.076Z,16.67
2023-05-22T07:25:13.481Z,16.73
2023-05-22T07:27:47.008Z,16.69
2023-05-22T07:30:19.545Z,16.76
2023-05-22T07:32:53.463Z,16.92
2023-05-22T07:35:26.190Z,16.91
2023-05-22T07:37:58.699Z,16.81
2023-05-22T07:40:31.243Z,16.92
2023-05-22T07:43:04.494Z,16.93
2023-05-22T07:45:39.016Z,16.84
2023-05-22T07:48:14.538Z,16.95
2023-05-22T07:50:47.124Z,16.95
2023-05-22T07:53:21.051Z,16.85
2023-05-22T07:55:56.507Z,16.84
2023-05-22T07:58:30.087Z,16.96
2023-05-22T08:01:04.248Z,17.17
2023-05-22T08:03:37.183Z,17.11
2023-05-22T08:06:22.488Z,16.99
2023-05-22T08:08:54.906Z,17.10
2023-05-22T08:11:27.546Z,17.08
2023-05-22T08:14:00.937Z,17.22
2023-05-22T08:16:33.504Z,17.00
2023-05-22T08:19:06.339Z,16.85
2023-05-22T08:21:39.621Z,16.87
2023-05-22T08:24:11.977Z,16.87
2023-05-22T08:26:44.324Z,16.88
2023-05-22T08:29:18.063Z,17.08
2023-05-22T08:31:51.626Z,17.09
2023-05-22T08:34:24.075Z,17.21
2023-05-22T08:36:56.596Z,17.41
2023-05-22T08:39:28.945Z,17.56
2023-05-22T08:42:02.704Z,17.61
2023-05-22T08:44:35.907Z,17.75
2023-05-22T08:47:10.560Z,17.64
2023-05-22T08:49:45.337Z,17.79
2023-05-22T08:52:21.693Z,18.01
2023-05-22T08:54:55.173Z,18.19
2023-05-22T08:57:27.868Z,18.22
2023-05-22T09:00:01.362Z,18.23
2023-05-22T09:02:35.301Z,18.45
2023-05-22T09:05:09.110Z,18.59
2023-05-22T09:07:41.892Z,18.87
2023-05-22T09:10:14.333Z,19.27
2023-05-22T09:13:05.009Z,19.26
2023-05-22T09:15:38.140Z,19.63
2023-05-22T09:18:10.672Z,19.40
2023-05-22T09:20:43.433Z,18.90
2023-05-22T09:23:17.672Z,19.17
2023-05-22T09:25:53.652Z,19.19
2023-05-22T09:28:26.761Z,19.38
2023-05-22T09:31:02.503Z,19.47
2023-05-22T09:33:36.866Z,19.62
2023-05-22T09:36:09.799Z,19.78
2023-05-22T09:38:42.440Z,19.75
2023-05-22T09:41:21.514Z,20.02
2023-05-22T09:43:53.997Z,19.93
2023-05-22T09:46:27.184Z,19.77
2023-05-22T09:49:01.495Z,19.84
2023-05-22T09:51:35.666Z,19.72
2023-05-22T09:54:09.094Z,19.77
2023-05-22T09:56:43.979Z,19.90
2023-05-22T09:59:21.623Z,19.82
2023-05-22T10:01:55.459Z,19.98
2023-05-22T10:04:32.708Z,20.19
2023-05-22T10:07:06.074Z,20.30
2023-05-22T10:09:40.214Z,20.35
2023-05-22T10:12:15.760Z,20.24
2023-05-22T10:14:48.657Z,20.20
2023-05-22T10:17:22.879Z,20.22
2023-05-22T10:19:57.387Z,20.32
2023-05-22T10:22:32.710Z,20.42
2023-05-22T10:25:08.567Z,20.04
2023-05-22T10:27:42.408Z,20.24
2023-05-22T10:30:24.077Z,20.39
2023-05-22T10:33:21.453Z,20.37
2023-05-22T10:36:01.434Z,20.10
2023-05-22T10:39:03.657Z,19.86
2023-05-22T10:41:36.290Z,19.73
2023-05-22T10:44:08.735Z,19.67
2023-05-22T10:46:48.597Z,19.54
2023-05-22T10:49:23.171Z,19.56
2023-05-22T10:51:56.582Z,19.17
2023-05-22T10:54:40.563Z,18.87
2023-05-22T10:57:17.359Z,18.69
2023-05-22T10:59:49.863Z,18.75
2023-05-22T11:02:28.576Z,18.00
2023-05-22T11:05:35.750Z,17.63
2023-05-22T11:08:12.465Z,17.37
2023-05-22T11:10:55.305Z,17.52
2023-05-22T11:13:29.264Z,17.62
2023-05-22T11:16:05.594Z,17.68
2023-05-22T11:18:38.121Z,17.56
2023-05-22T11:21:11.547Z,17.45
2023-05-22T11:23:45.898Z,17.49
2023-05-22T11:26:25.234Z,17.64
2023-05-22T11:28:59.833Z,17.72
2023-05-22T11:31:32.677Z,17.70
2023-05-22T11:34:05.418Z,17.82
2023-05-22T11:36:38.598Z,17.81
2023-05-22T11:39:14.719Z,17.97
2023-05-22T11:41:47.127Z,18.07
2023-05-22T11:44:19.511Z,18.03
2023-05-22T11:46:52.247Z,18.01
2023-05-22T11:49:25.193Z,17.77
2023-05-22T11:51:58.379Z,16.77
2023-05-22T11:54:32.323Z,16.87
2023-05-22T11:57:06.180Z,16.89
2023-05-22T11:59:38.646Z,16.77
2023-05-22T12:02:11.154Z,16.72
2023-05-22T12:04:43.584Z,16.60
2023-05-22T12:07:16.789Z,16.37
2023-05-22T12:09:49.556Z,16.18
2023-05-22T12:12:22.809Z,16.07
2023-05-22T12:14:57.345Z,15.60
2023-05-22T12:17:29.770Z,15.59
2023-05-22T12:20:04.069Z,15.42
2023-05-22T12:22:42.691Z,15.33
2023-05-22T12:25:16.901Z,15.19
2023-05-22T12:27:51.269Z,15.13
2023-05-22T12:30:23.642Z,15.11
2023-05-22T12:32:56.430Z,15.11
2023-05-22T12:35:28.895Z,15.18
2023-05-22T12:38:02.087Z,15.24
2023-05-22T12:40:34.607Z,15.35
2023-05-22T12:43:07.514Z,15.52
2023-05-22T12:45:41.998Z,15.55
2023-05-22T12:48:14.788Z,15.63
2023-05-22T12:50:47.307Z,15.76
2023-05-22T12:53:20.511Z,15.81
2023-05-22T12:55:52.871Z,15.94
2023-05-22T12:58:25.283Z,16.04
2023-05-22T13:00:57.814Z,16.11
2023-05-22T13:03:30.704Z,16.12
2023-05-22T13:06:03.402Z,16.19
2023-05-22T13:08:36.593Z,16.08
2023-05-22T13:11:10.687Z,16.17
2023-05-22T13:13:43.120Z,16.21
2023-05-22T13:16:16.257Z,16.18
2023-05-22T13:18:48.781Z,16.14
2023-05-22T13:21:21.204Z,16.12
2023-05-22T13:23:55.221Z,16.15
2023-05-22T13:26:28.362Z,16.18
2023-05-22T13:29:04.532Z,16.22
2023-05-22T13:31:37.570Z,16.36
2023-05-22T13:34:10.356Z,16.40
2023-05-22T13:36:43.139Z,16.33
2023-05-22T13:39:18.864Z,16.36
2023-05-22T13:41:52.621Z,16.29
2023-05-22T13:44:25.398Z,16.34
2023-05-22T13:46:57.965Z,16.39
2023-05-22T13:49:30.429Z,16.38
2023-05-22T13:52:03.116Z,16.34
2023-05-22T13:54:36.213Z,16.44
2023-05-22T13:57:08.717Z,16.37
2023-05-22T13:59:41.147Z,16.37
2023-05-22T14:02:13.632Z,16.34
2023-05-22T14:04:48.562Z,16.36
2023-05-22T14:07:21.191Z,16.36
2023-05-22T14:09:54.252Z,16.35
2023-05-22T14:12:26.818Z,16.39
2023-05-22T14:14:59.302Z,16.50
2023-05-22T14:17:31.647Z,16.49
2023-05-22T14:20:04.573Z,16.69
2023-05-22T14:22:47.918Z,16.77
2023-05-22T14:25:29.265Z,16.76
2023-05-22T14:28:02.007Z,16.76
2023-05-22T14:30:34.411Z,16.87
2023-05-22T14:33:07.014Z,16.88
2023-05-22T14:35:39.546Z,16.97
2023-05-22T14:38:12.041Z,17.05
2023-05-22T14:40:45.223Z,17.22
2023-05-22T14:43:17.515Z,17.22
2023-05-22T14:45:50.116Z,17.47
2023-05-22T14:48:25.413Z,17.58
2023-05-22T14:50:57.812Z,17.60
2023-05-22T14:53:30.135Z,17.72
2023-05-22T14:56:03.268Z,17.51
2023-05-22T14:58:35.551Z,17.48
2023-05-22T15:01:07.924Z,17.50
2023-05-22T15:03:40.238Z,17.43
2023-05-22T15:06:12.557Z,17.44
2023-05-22T15:08:44.887Z,17.29
2023-05-22T15:11:17.856Z,17.24
2023-05-22T15:13:50.840Z,17.20
2023-05-22T15:16:24.864Z,17.16
2023-05-22T15:18:57.250Z,17.28
2023-05-22T15:21:29.772Z,17.18
2023-05-22T15:24:02.483Z,17.09
2023-05-22T15:26:35.502Z,17.10
2023-05-22T15:29:07.909Z,17.05
2023-05-22T15:31:40.290Z,17.16
2023-05-22T15:34:12.622Z,17.07
2023-05-22T15:36:44.960Z,16.77
2023-05-22T15:39:17.304Z,16.77
2023-05-22T15:42:02.455Z,16.97
2023-05-22T15:44:37.953Z,17.15
2023-05-22T15:47:10.280Z,17.26
2023-05-22T15:49:42.619Z,17.14
2023-05-22T15:52:15.053Z,16.87
2023-05-22T15:54:47.366Z,16.90
2023-05-22T15:57:20.393Z,16.82
2023-05-22T15:59:52.748Z,16.76
2023-05-22T16:02:25.110Z,16.62
2023-05-22T16:04:57.464Z,16.54
2023-05-22T16:07:29.791Z,16.36
2023-05-22T16:10:02.155Z,16.29
2023-05-22T16:12:35.308Z,15.99
2023-05-22T16:15:08.844Z,15.88
2023-05-22T16:17:41.176Z,15.80
2023-05-22T16:20:13.550Z,15.60
2023-05-22T16:22:48.979Z,15.55
2023-05-22T16:25:21.819Z,15.58
2023-05-22T16:27:54.801Z,15.51
2023-05-22T16:30:27.154Z,15.57
2023-05-22T16:32:59.527Z,15.60
2023-05-22T16:35:31.886Z,15.56
2023-05-22T16:38:06.295Z,15.61
2023-05-22T16:40:38.631Z,15.53
2023-05-22T16:43:13.057Z,15.53
2023-05-22T16:45:50.152Z,15.44
2023-05-22T16:48:22.525Z,15.32
2023-05-22T16:50:54.882Z,15.15
2023-05-22T16:53:27.220Z,15.20
2023-05-22T16:55:59.673Z,15.17
2023-05-22T16:58:32.728Z,15.23
2023-05-22T17:01:05.951Z,15.24
2023-05-22T17:03:38.384Z,15.24
2023-05-22T17:06:11.432Z,15.08
2023-05-22T17:08:43.994Z,15.05
2023-05-22T17:11:16.363Z,15.00
2023-05-22T17:13:49.438Z,14.94
2023-05-22T17:16:21.797Z,14.75
2023-05-22T17:18:55.076Z,14.67
2023-05-22T17:21:28.152Z,14.63
2023-05-22T17:24:01.075Z,14.40
2023-05-22T17:26:33.745Z,14.39
2023-05-22T17:29:06.986Z,14.44
2023-05-22T17:31:39.782Z,14.48
2023-05-22T17:34:12.235Z,14.49
2023-05-22T17:36:45.235Z,14.47
2023-05-22T17:39:17.700Z,14.50
2023-05-22T17:41:50.586Z,14.52
2023-05-22T17:44:23.585Z,14.36
2023-05-22T17:46:55.967Z,14.18
2023-05-22T17:49:28.330Z,14.18
2023-05-22T17:52:01.030Z,14.01
2023-05-22T17:54:33.979Z,14.01
2023-05-22T17:57:06.361Z,13.90
2023-05-22T17:59:40.416Z,13.97
2023-05-22T18:02:13.111Z,14.01
2023-05-22T18:04:45.474Z,13.95
2023-05-22T18:07:19.246Z,13.73
2023-05-22T18:09:51.788Z,13.74
2023-05-22T18:12:31.703Z,13.55
2023-05-22T18:15:08.754Z,13.40
2023-05-22T18:17:41.498Z,13.40
2023-05-22T18:20:16.020Z,13.35
2023-05-22T18:22:48.356Z,13.18
2023-05-22T18:25:20.689Z,13.06
2023-05-22T18:27:54.404Z,12.91
2023-05-22T18:30:27.511Z,12.98
2023-05-22T18:33:00.038Z,13.18
2023-05-22T18:35:33.036Z,13.11
2023-05-22T18:38:05.735Z,13.22
2023-05-22T18:40:38.123Z,13.13
2023-05-22T18:43:10.552Z,13.27
2023-05-22T18:45:43.593Z,13.28
2023-05-22T18:48:15.996Z,13.26
2023-05-22T18:50:48.481Z,13.18
2023-05-22T18:53:22.132Z,13.03
2023-05-22T18:55:54.489Z,12.99
2023-05-22T18:58:26.862Z,12.82
2023-05-22T19:01:01.025Z,12.71
2023-05-22T19:03:33.486Z,12.75
2023-05-22T19:06:06.458Z,12.85
2023-05-22T19:08:39.689Z,13.01
2023-05-22T19:11:12.106Z,13.03
2023-05-22T19:13:44.737Z,13.08
2023-05-22T19:16:17.880Z,13.18
2023-05-22T19:18:50.513Z,13.12
2023-05-22T19:21:23.809Z,13.12
2023-05-22T19:23:56.164Z,13.08
2023-05-22T19:26:28.475Z,13.01
2023-05-22T19:29:00.897Z,13.12
2023-05-22T19:31:34.650Z,13.11
2023-05-22T19:34:07.074Z,13.01
2023-05-22T19:36:39.422Z,12.96
2023-05-22T19:39:11.817Z,12.89
2023-05-22T19:41:44.259Z,12.90
2023-05-22T19:44:16.625Z,12.84
2023-05-22T19:46:49.840Z,12.89
2023-05-22T19:49:22.360Z,13.00
2023-05-22T19:51:56.151Z,12.95
2023-05-22T19:54:28.777Z,12.97
2023-05-22T19:57:02.252Z,12.98
2023-05-22T19:59:36.507Z,13.04
2023-05-22T20:02:10.413Z,13.11
2023-05-22T20:04:48.783Z,13.18
2023-05-22T20:07:21.217Z,13.26
2023-05-22T20:09:53.563Z,13.26
2023-05-22T20:12:26.122Z,13.08
2023-05-22T20:14:59.094Z,13.11
2023-05-22T20:17:32.211Z,13.00
2023-05-22T20:20:08.954Z,13.01
2023-05-22T20:22:41.282Z,13.10
2023-05-22T20:25:13.637Z,13.02
2023-05-22T20:27:53.453Z,12.96
2023-05-22T20:30:25.797Z,13.06
2023-05-22T20:32:58.920Z,12.80
2023-05-22T20:35:31.591Z,12.72
2023-05-22T20:38:03.970Z,12.68
2023-05-22T20:40:41.605Z,12.50
2023-05-22T20:43:17.890Z,12.55
2023-05-22T20:45:50.455Z,12.54
2023-05-22T20:48:26.131Z,12.42
2023-05-22T20:50:58.496Z,12.40
2023-05-22T20:53:33.728Z,12.24
2023-05-22T20:56:08.782Z,12.36
2023-05-22T20:58:52.502Z,12.20
2023-05-22T21:01:33.410Z,11.98
2023-05-22T21:04:07.045Z,11.97
2023-05-22T21:06:39.545Z,11.85
2023-05-22T21:09:11.957Z,11.71
2023-05-22T21:11:44.307Z,11.75
2023-05-22T21:14:16.839Z,11.77
2023-05-22T21:16:49.236Z,11.67
2023-05-22T21:19:22.318Z,11.61
2023-05-22T21:21:54.694Z,11.59
2023-05-22T21:24:27.248Z,11.62
2023-05-22T21:26:59.859Z,11.70
2023-05-22T21:29:32.201Z,11.75
2023-05-22T21:32:05.305Z,11.88
2023-05-22T21:34:38.321Z,12.06
2023-05-22T21:37:10.770Z,12.00
2023-05-22T21:39:43.157Z,12.09
2023-05-22T21:42:16.189Z,11.89
2023-05-22T21:44:48.634Z,11.92
2023-05-22T21:47:20.990Z,12.03
2023-05-22T21:49:53.937Z,12.15
2023-05-22T21:52:27.956Z,12.18
2023-05-22T21:55:01.612Z,12.16
2023-05-22T21:57:34.363Z,12.18
2023-05-22T22:00:07.832Z,12.06
2023-05-22T22:02:40.331Z,12.03
2023-05-22T22:05:13.479Z,12.11
2023-05-22T22:07:45.855Z,12.21
2023-05-22T22:10:18.232Z,12.21
2023-05-22T22:12:50.567Z,12.19
2023-05-22T22:15:22.985Z,12.17
2023-05-22T22:17:59.376Z,12.10
2023-05-22T22:20:43.477Z,12.16
2023-05-22T22:23:17.069Z,12.13
2023-05-22T22:25:49.623Z,12.17
2023-05-22T22:28:22.018Z,12.20
2023-05-22T22:30:54.346Z,12.18
2023-05-22T22:33:26.700Z,12.15
2023-05-22T22:35:59.810Z,11.97
2023-05-22T22:38:34.319Z,12.00
2023-05-22T22:41:08.641Z,11.97
2023-05-22T22:43:41.074Z,11.97
2023-05-22T22:46:13.761Z,11.88
2023-05-22T22:48:46.057Z,11.85
2023-05-22T22:51:19.371Z,11.76
2023-05-22T22:53:51.834Z,11.77
2023-05-22T22:56:27.372Z,11.72
2023-05-22T22:58:59.741Z,11.68
2023-05-22T23:01:32.407Z,11.63
2023-05-22T23:04:04.904Z,11.57
2023-05-22T23:06:41.021Z,11.50
2023-05-22T23:09:14.600Z,11.47
2023-05-22T23:11:46.936Z,11.52
2023-05-22T23:14:19.706Z,11.48
2023-05-22T23:16:52.325Z,11.31
2023-05-22T23:19:24.729Z,11.23
2023-05-22T23:21:57.744Z,11.20
2023-05-22T23:24:30.083Z,11.24
2023-05-22T23:27:02.398Z,11.12
2023-05-22T23:29:34.702Z,11.11
2023-05-22T23:32:07.081Z,11.09
2023-05-22T23:34:39.614Z,11.04
2023-05-22T23:37:12.642Z,10.94
2023-05-22T23:39:44.953Z,10.88
2023-05-22T23:42:18.027Z,10.90
2023-05-22T23:44:50.366Z,10.92
2023-05-22T23:47:22.742Z,10.78
2023-05-22T23:49:55.999Z,10.78
2023-05-22T23:52:29.008Z,10.78
2023-05-22T23:55:01.474Z,10.70
2023-05-22T23:57:33.845Z,10.63
